Time;durP1;ratioP1;P1;durP2;ratioP2;P2;SDS_P1;SDS_P2;PMS_P1;PMS_P2;Temp;Humidity;BMP_temperature;BMP_pressure;BME280_temperature;BME280_humidity;BME280_pressure;Samples;Min_cycle;Max_cycle;Signal;HPM_P1;HPM_P2
2023/04/08 00:01:59;;;;;;;7.85;2.60;;;5.50;93.00;;;;;;5115658;28;20024;-91
2023/04/08 00:04:24;;;;;;;4.18;2.70;;;5.50;93.40;;;;;;5115770;28;20052;-90
2023/04/08 00:06:50;;;;;;;9.10;3.13;;;5.40;93.70;;;;;;5128938;28;20084;-89
2023/04/08 00:09:16;;;;;;;5.13;2.60;;;5.40;94.00;;;;;;5132632;28;20024;-90
2023/04/08 00:11:42;;;;;;;7.20;2.80;;;5.30;94.30;;;;;;5134637;28;20064;-90
2023/04/08 00:14:10;;;;;;;5.93;2.78;;;5.30;94.70;;;;;;5132641;28;20028;-90
2023/04/08 00:16:36;;;;;;;5.28;2.60;;;5.30;95.10;;;;;;5124170;28;20028;-89
2023/04/08 00:19:01;;;;;;;6.88;3.10;;;5.20;95.50;;;;;;5130690;28;20035;-89
2023/04/08 00:21:27;;;;;;;7.70;3.28;;;5.20;95.90;;;;;;5121134;28;20020;-90
2023/04/08 00:23:53;;;;;;;7.43;3.22;;;5.10;96.30;;;;;;5128711;28;20024;-91
2023/04/08 00:26:19;;;;;;;7.38;3.63;;;5.10;96.70;;;;;;5119005;28;20028;-89
2023/04/08 00:28:45;;;;;;;9.25;3.53;;;5.10;97.10;;;;;;5118124;28;20096;-90
2023/04/08 00:31:11;;;;;;;5.03;2.97;;;5.10;97.50;;;;;;5117243;28;20023;-91
2023/04/08 00:33:36;;;;;;;7.05;3.60;;;5.00;97.90;;;;;;5121036;28;20035;-90
2023/04/08 00:36:02;;;;;;;5.50;2.90;;;5.00;98.30;;;;;;5124812;28;20114;-89
2023/04/08 00:38:28;;;;;;;6.88;3.03;;;5.00;98.80;;;;;;5116622;28;20572;-90
2023/04/08 00:40:55;;;;;;;8.93;3.22;;;4.90;99.20;;;;;;5116677;28;20110;-90
2023/04/08 00:43:20;;;;;;;9.70;3.35;;;4.90;99.70;;;;;;5115884;28;20055;-89
2023/04/08 00:45:47;;;;;;;6.00;3.20;;;4.90;99.90;;;;;;5115248;28;20024;-90
2023/04/08 00:48:12;;;;;;;6.97;3.55;;;4.80;99.90;;;;;;5114876;28;20050;-90
2023/04/08 00:50:38;;;;;;;5.03;3.08;;;4.70;99.90;;;;;;5115477;28;20058;-90
2023/04/08 00:53:04;;;;;;;6.75;3.03;;;4.70;99.90;;;;;;5114589;28;20024;-90
2023/04/08 00:55:30;;;;;;;6.85;2.83;;;4.70;99.90;;;;;;5114919;28;20115;-90
2023/04/08 00:57:57;;;;;;;7.18;2.83;;;4.70;99.90;;;;;;5114657;28;20023;-91
2023/04/08 01:00:23;;;;;;;6.85;3.40;;;4.70;99.90;;;;;;5115566;28;20027;-90
2023/04/08 01:03:24;;;;;;;9.35;3.22;;;4.60;99.90;;;;;;5114855;28;20024;-91
2023/04/08 01:06:00;;;;;;;4.72;2.42;;;4.60;99.90;;;;;;5115914;28;20178;-90
2023/04/08 01:08:30;;;;;;;7.95;3.00;;;4.50;99.90;;;;;;5115477;28;20031;-90
2023/04/08 01:11:00;;;;;;;5.22;2.70;;;4.50;99.90;;;;;;5115638;28;20020;-90
2023/04/08 01:13:30;;;;;;;9.95;3.10;;;4.50;99.90;;;;;;5114351;28;20024;-88
2023/04/08 01:15:56;;;;;;;5.75;3.03;;;4.40;99.90;;;;;;5097496;28;20090;-89
2023/04/08 01:18:22;;;;;;;6.85;2.95;;;4.40;99.90;;;;;;5114323;28;20500;-89
2023/04/08 01:20:50;;;;;;;6.28;3.15;;;4.40;99.90;;;;;;5117020;28;20460;-89
2023/04/08 01:23:45;;;;;;;6.82;3.20;;;4.30;99.90;;;;;;5116204;28;20024;-89
2023/04/08 01:26:20;;;;;;;6.22;2.88;;;4.30;99.90;;;;;;5122700;28;20045;-89
2023/04/08 01:28:50;;;;;;;8.35;3.22;;;4.30;99.90;;;;;;5119628;28;20035;-90
2023/04/08 01:31:17;;;;;;;6.53;3.42;;;4.20;99.90;;;;;;5122443;28;20015;-89
2023/04/08 01:33:45;;;;;;;7.07;3.03;;;4.20;99.90;;;;;;5122225;28;20032;-90
2023/04/08 01:36:10;;;;;;;7.82;3.78;;;4.20;99.90;;;;;;5121422;28;20033;-90
2023/04/08 01:38:37;;;;;;;11.85;3.58;;;4.20;99.90;;;;;;5119549;28;20118;-89
2023/04/08 01:41:05;;;;;;;6.85;3.53;;;4.10;99.90;;;;;;5120920;28;20114;-90
2023/04/08 01:43:33;;;;;;;10.25;4.20;;;4.10;99.90;;;;;;5116834;28;20075;-89
2023/04/08 01:46:00;;;;;;;9.18;3.65;;;4.00;99.90;;;;;;5116738;28;20476;-88
2023/04/08 01:48:28;;;;;;;6.88;4.22;;;4.00;99.90;;;;;;5117092;28;20020;-90
2023/04/08 01:50:55;;;;;;;8.18;3.97;;;4.00;99.90;;;;;;5114901;28;20031;-90
2023/04/08 01:53:21;;;;;;;9.40;4.35;;;3.90;99.90;;;;;;5114753;28;20016;-90
2023/04/08 01:55:54;;;;;;;6.45;3.40;;;3.90;99.90;;;;;;5113581;28;20081;-90
2023/04/08 01:58:21;;;;;;;9.27;4.25;;;3.80;99.90;;;;;;5113802;28;20102;-90
2023/04/08 02:00:48;;;;;;;8.70;4.00;;;3.80;99.90;;;;;;5113855;28;20030;-90
2023/04/08 02:03:17;;;;;;;8.05;4.28;;;3.80;99.90;;;;;;5113234;28;20020;-90
2023/04/08 02:05:43;;;;;;;8.10;4.30;;;3.80;99.90;;;;;;5113916;28;20054;-90
2023/04/08 02:08:09;;;;;;;11.27;3.80;;;3.90;99.90;;;;;;5113557;28;20028;-90
2023/04/08 02:10:36;;;;;;;8.70;3.60;;;3.80;99.90;;;;;;5114549;28;20431;-90
2023/04/08 02:13:02;;;;;;;6.15;4.00;;;3.80;99.90;;;;;;5114338;28;20073;-90
2023/04/08 02:15:31;;;;;;;8.38;4.07;;;3.70;99.90;;;;;;5113415;28;20030;-90
2023/04/08 02:18:21;;;;;;;13.55;3.80;;;3.70;99.90;;;;;;5113341;28;20069;-90
2023/04/08 02:20:54;;;;;;;7.85;3.97;;;3.60;99.90;;;;;;5113216;28;20027;-89
2023/04/08 02:23:23;;;;;;;9.95;4.32;;;3.60;99.90;;;;;;5113271;28;20067;-89
2023/04/08 02:25:52;;;;;;;9.13;3.70;;;3.60;99.90;;;;;;5113304;28;20473;-90
2023/04/08 02:28:18;;;;;;;10.50;4.63;;;3.60;99.90;;;;;;5112305;28;20034;-90
2023/04/08 02:30:52;;;;;;;9.10;3.72;;;3.60;99.90;;;;;;5112546;28;20026;-89
2023/04/08 02:33:21;;;;;;;12.20;3.80;;;3.50;99.90;;;;;;5112702;28;20020;-90
2023/04/08 02:35:49;;;;;;;11.35;5.18;;;3.50;99.90;;;;;;5112341;28;20027;-89
2023/04/08 02:38:15;;;;;;;7.63;4.13;;;3.50;99.90;;;;;;5112270;28;20553;-90
2023/04/08 02:40:41;;;;;;;11.48;4.22;;;3.50;99.90;;;;;;5112227;28;20115;-89
2023/04/08 02:43:07;;;;;;;10.55;4.43;;;3.40;99.90;;;;;;5113055;28;20076;-89
2023/04/08 02:45:42;;;;;;;10.73;4.68;;;3.40;99.90;;;;;;5118229;28;20426;-90
2023/04/08 02:48:09;;;;;;;7.70;4.10;;;3.30;99.90;;;;;;5112663;28;20035;-89
2023/04/08 02:50:35;;;;;;;8.40;4.53;;;3.30;99.90;;;;;;5113737;28;20598;-89
2023/04/08 02:53:00;;;;;;;8.63;4.10;;;3.30;99.90;;;;;;5116507;28;20027;-90
2023/04/08 02:55:26;;;;;;;10.65;5.18;;;3.20;99.90;;;;;;5116343;28;20413;-89
2023/04/08 02:57:52;;;;;;;8.90;4.57;;;3.20;99.90;;;;;;5116367;28;20045;-90
2023/04/08 03:00:19;;;;;;;9.18;4.63;;;3.20;99.90;;;;;;5116809;28;20387;-90
2023/04/08 03:02:45;;;;;;;12.25;4.50;;;3.20;99.90;;;;;;5116489;28;20019;-90
2023/04/08 03:05:10;;;;;;;8.55;4.85;;;3.20;99.90;;;;;;5116372;28;20069;-88
2023/04/08 03:07:37;;;;;;;8.68;4.57;;;3.20;99.90;;;;;;5117501;28;20118;-90
2023/04/08 03:10:03;;;;;;;10.30;4.63;;;3.10;99.90;;;;;;5098894;28;20067;-90
2023/04/08 03:12:30;;;;;;;10.63;4.53;;;3.10;99.90;;;;;;5115792;28;20027;-90
2023/04/08 03:14:57;;;;;;;11.05;5.05;;;3.10;99.90;;;;;;5115573;28;20051;-90
2023/04/08 03:17:22;;;;;;;9.40;4.30;;;3.00;99.90;;;;;;5115829;28;20172;-90
2023/04/08 03:19:48;;;;;;;9.73;4.25;;;3.00;99.90;;;;;;5116302;28;20433;-90
2023/04/08 03:22:14;;;;;;;9.52;4.95;;;3.00;99.90;;;;;;5115853;28;20027;-90
2023/04/08 03:24:40;;;;;;;12.15;4.50;;;2.90;99.90;;;;;;5116283;28;20120;-90
2023/04/08 03:27:07;;;;;;;7.88;4.55;;;2.90;99.90;;;;;;5116473;28;20128;-90
2023/04/08 03:29:33;;;;;;;11.95;4.80;;;3.00;99.90;;;;;;5115732;28;20024;-90
2023/04/08 03:31:58;;;;;;;10.02;4.82;;;3.00;99.90;;;;;;5115394;28;20028;-90
2023/04/08 03:34:24;;;;;;;8.35;4.80;;;2.90;99.90;;;;;;5116870;28;20027;-90
2023/04/08 03:36:50;;;;;;;9.57;4.53;;;2.90;99.90;;;;;;5115763;28;20027;-90
2023/04/08 03:39:16;;;;;;;9.95;4.93;;;2.80;99.90;;;;;;5116281;28;20114;-89
2023/04/08 03:41:42;;;;;;;12.90;4.85;;;2.80;99.90;;;;;;5115774;28;20119;-91
2023/04/08 03:44:07;;;;;;;11.10;4.63;;;2.70;99.90;;;;;;5114530;28;20643;-89
2023/04/08 03:46:33;;;;;;;9.27;4.22;;;2.70;99.90;;;;;;5115205;28;20023;-91
2023/04/08 03:48:59;;;;;;;9.35;4.28;;;2.70;99.90;;;;;;5115593;28;20048;-91
2023/04/08 03:51:25;;;;;;;12.48;5.40;;;2.70;99.90;;;;;;5115336;28;20027;-91
2023/04/08 03:53:50;;;;;;;12.68;5.45;;;2.60;99.90;;;;;;5114555;28;20031;-91
2023/04/08 03:56:16;;;;;;;12.43;4.97;;;2.60;99.90;;;;;;5115461;28;20015;-90
2023/04/08 03:58:42;;;;;;;9.32;4.90;;;2.50;99.90;;;;;;5115505;28;20500;-90
2023/04/08 04:01:07;;;;;;;8.50;4.97;;;2.50;99.90;;;;;;5115795;28;20020;-89
2023/04/08 04:03:33;;;;;;;12.52;5.50;;;2.50;99.90;;;;;;5114073;28;20489;-88
2023/04/08 04:05:59;;;;;;;9.70;5.07;;;2.50;99.90;;;;;;5114962;28;20043;-90
2023/04/08 04:08:24;;;;;;;8.95;5.05;;;2.40;99.90;;;;;;5116712;28;20020;-89
2023/04/08 04:10:50;;;;;;;10.00;4.93;;;2.40;99.90;;;;;;5123537;28;20077;-88
2023/04/08 04:13:16;;;;;;;14.23;5.90;;;2.40;99.90;;;;;;5117131;28;20024;-89
2023/04/08 04:15:42;;;;;;;9.48;4.57;;;2.30;99.90;;;;;;5119108;28;20096;-90
2023/04/08 04:18:08;;;;;;;13.18;6.28;;;2.30;99.90;;;;;;5118975;28;20032;-89
2023/04/08 04:20:33;;;;;;;9.00;4.88;;;2.30;99.90;;;;;;5115184;28;20027;-90
2023/04/08 04:22:59;;;;;;;13.50;5.10;;;2.30;99.90;;;;;;5114229;28;20041;-90
2023/04/08 04:25:25;;;;;;;10.30;5.15;;;2.30;99.90;;;;;;5113559;28;20024;-89
2023/04/08 04:27:50;;;;;;;12.57;5.47;;;2.30;99.90;;;;;;5113912;28;20043;-89
2023/04/08 04:30:18;;;;;;;12.18;5.63;;;2.40;99.90;;;;;;5114371;28;20023;-89
2023/04/08 04:32:44;;;;;;;11.85;5.00;;;2.30;99.90;;;;;;5113480;28;20392;-89
2023/04/08 04:35:10;;;;;;;10.32;5.25;;;2.30;99.90;;;;;;5113791;28;20034;-90
2023/04/08 04:37:35;;;;;;;13.05;5.25;;;2.30;99.90;;;;;;5113175;28;20023;-89
2023/04/08 04:40:02;;;;;;;16.90;5.40;;;2.30;99.90;;;;;;5113072;28;20038;-88
2023/04/08 04:42:28;;;;;;;13.15;5.97;;;2.30;99.90;;;;;;5113223;28;20020;-89
2023/04/08 04:44:53;;;;;;;8.38;4.78;;;2.20;99.90;;;;;;5113061;28;20131;-89
2023/04/08 04:47:19;;;;;;;11.05;5.53;;;2.20;99.90;;;;;;5113007;28;20429;-89
2023/04/08 04:49:45;;;;;;;13.65;5.60;;;2.20;99.90;;;;;;5113170;28;20019;-90
2023/04/08 04:52:11;;;;;;;11.15;5.20;;;2.10;99.90;;;;;;5112861;28;20384;-90
2023/04/08 04:54:36;;;;;;;13.88;5.70;;;2.10;99.90;;;;;;5113054;28;20028;-89
2023/04/08 04:57:02;;;;;;;16.23;5.47;;;2.00;99.90;;;;;;5112471;28;20037;-91
2023/04/08 04:59:28;;;;;;;12.77;5.50;;;2.00;99.90;;;;;;5113814;28;20091;-91
2023/04/08 05:01:56;;;;;;;13.27;5.35;;;2.00;99.90;;;;;;5114007;28;20024;-90
2023/04/08 05:04:25;;;;;;;13.18;5.43;;;2.00;99.90;;;;;;5113658;28;20046;-91
2023/04/08 05:06:51;;;;;;;11.95;5.72;;;1.90;99.90;;;;;;5113516;28;20039;-90
2023/04/08 05:09:17;;;;;;;11.07;5.53;;;1.90;99.90;;;;;;5113780;28;20023;-90
2023/04/08 05:11:43;;;;;;;11.63;5.68;;;1.90;99.90;;;;;;5114025;28;20046;-91
2023/04/08 05:14:08;;;;;;;13.38;5.55;;;1.90;99.90;;;;;;5117806;28;20027;-89
2023/04/08 05:16:34;;;;;;;11.40;5.57;;;1.90;99.90;;;;;;5120872;28;20042;-88
2023/04/08 05:19:00;;;;;;;13.27;6.25;;;1.80;99.90;;;;;;5122072;28;20043;-90
2023/04/08 05:21:26;;;;;;;11.52;5.75;;;1.80;99.90;;;;;;5121964;28;20031;-89
2023/04/08 05:23:53;;;;;;;9.88;5.00;;;1.80;99.90;;;;;;5121879;28;20020;-89
2023/04/08 05:26:22;;;;;;;11.10;5.35;;;1.80;99.90;;;;;;5118187;28;20038;-89
2023/04/08 05:28:48;;;;;;;10.50;5.53;;;1.80;99.90;;;;;;5113932;28;20040;-91
2023/04/08 05:31:20;;;;;;;15.10;6.15;;;1.80;99.90;;;;;;5115485;28;20025;-89
2023/04/08 05:33:47;;;;;;;13.10;5.90;;;1.80;99.90;;;;;;5120994;28;20116;-89
2023/04/08 05:36:13;;;;;;;11.73;6.00;;;1.70;99.90;;;;;;5113792;28;20038;-90
2023/04/08 05:38:41;;;;;;;15.27;6.43;;;1.70;99.90;;;;;;5096939;28;20020;-89
2023/04/08 05:41:07;;;;;;;16.73;5.97;;;1.70;99.90;;;;;;5113110;28;20031;-90
2023/04/08 05:43:33;;;;;;;19.77;6.38;;;1.70;99.90;;;;;;5112673;28;20110;-90
2023/04/08 05:45:58;;;;;;;12.02;5.97;;;1.70;99.90;;;;;;5112171;28;20062;-90
2023/04/08 05:48:24;;;;;;;14.70;5.93;;;1.70;99.90;;;;;;5111636;28;20054;-89
2023/04/08 05:50:50;;;;;;;12.82;5.97;;;1.70;99.90;;;;;;5112043;28;20050;-90
2023/04/08 05:53:15;;;;;;;16.55;6.20;;;1.70;99.90;;;;;;5111974;28;20439;-90
2023/04/08 05:55:41;;;;;;;14.25;6.30;;;1.70;99.90;;;;;;5112359;28;20023;-89
2023/04/08 05:58:07;;;;;;;12.43;5.80;;;1.70;99.90;;;;;;5111949;28;20030;-90
2023/04/08 06:00:32;;;;;;;12.13;6.15;;;1.70;99.90;;;;;;5112018;28;20464;-90
2023/04/08 06:02:58;;;;;;;16.83;6.47;;;1.70;99.90;;;;;;5111629;28;20024;-90
2023/04/08 06:05:24;;;;;;;15.43;6.35;;;1.70;99.90;;;;;;5111422;28;20055;-89
2023/04/08 06:07:50;;;;;;;10.02;5.78;;;1.70;99.90;;;;;;5111165;28;20068;-90
2023/04/08 06:10:16;;;;;;;12.25;6.00;;;1.80;99.90;;;;;;5111991;28;20500;-90
2023/04/08 06:12:41;;;;;;;12.60;6.00;;;1.80;99.90;;;;;;5110254;28;20115;-90
2023/04/08 06:15:08;;;;;;;16.92;6.25;;;1.80;99.90;;;;;;5111816;28;20031;-90
2023/04/08 06:17:38;;;;;;;14.85;6.15;;;1.80;99.90;;;;;;5114607;28;20026;-89
2023/04/08 06:20:05;;;;;;;13.80;6.53;;;1.80;99.90;;;;;;5119596;28;20408;-91
2023/04/08 06:22:31;;;;;;;13.88;5.60;;;1.80;99.90;;;;;;5112328;28;20045;-90
2023/04/08 06:24:57;;;;;;;13.70;6.80;;;1.70;99.90;;;;;;5111838;28;20024;-90
2023/04/08 06:27:22;;;;;;;11.75;6.88;;;1.70;99.90;;;;;;5112649;28;20126;-89
2023/04/08 06:29:48;;;;;;;15.35;7.43;;;1.80;99.90;;;;;;5112633;28;20023;-90
2023/04/08 06:32:14;;;;;;;9.88;5.85;;;1.80;99.90;;;;;;5112202;28;20024;-90
2023/04/08 06:34:40;;;;;;;16.55;6.50;;;1.70;99.90;;;;;;5114999;28;20024;-91
2023/04/08 06:37:06;;;;;;;17.80;7.32;;;1.70;99.90;;;;;;5111331;28;20027;-90
2023/04/08 06:39:32;;;;;;;14.25;6.70;;;1.80;99.90;;;;;;5111853;28;20072;-90
2023/04/08 06:41:58;;;;;;;15.75;7.05;;;1.80;99.90;;;;;;5111900;28;20020;-92
2023/04/08 06:44:23;;;;;;;15.23;7.00;;;1.80;99.90;;;;;;5111851;28;20031;-91
2023/04/08 06:46:50;;;;;;;13.48;7.13;;;1.90;99.90;;;;;;5112071;28;20019;-90
2023/04/08 06:49:15;;;;;;;14.65;7.05;;;1.90;99.90;;;;;;5100121;28;20493;-91
2023/04/08 06:51:41;;;;;;;14.25;6.90;;;2.00;99.90;;;;;;5092624;28;20027;-90
2023/04/08 06:54:08;;;;;;;14.07;7.15;;;2.00;99.90;;;;;;5091556;28;20109;-89
2023/04/08 06:56:35;;;;;;;17.58;7.15;;;2.10;99.90;;;;;;5093378;28;20473;-91
2023/04/08 06:59:01;;;;;;;16.25;7.05;;;2.10;99.90;;;;;;5094092;28;20070;-91
2023/04/08 07:01:26;;;;;;;14.05;7.13;;;2.10;99.90;;;;;;5083758;28;20101;-91
2023/04/08 07:03:52;;;;;;;19.08;7.85;;;2.20;99.90;;;;;;5092255;28;20074;-91
2023/04/08 07:06:18;;;;;;;18.88;7.72;;;2.20;99.90;;;;;;5092768;28;20035;-90
2023/04/08 07:08:43;;;;;;;17.48;7.97;;;2.20;99.90;;;;;;5092564;28;20035;-90
2023/04/08 07:11:10;;;;;;;14.13;6.93;;;2.20;99.90;;;;;;5092920;28;20036;-91
2023/04/08 07:13:35;;;;;;;17.30;8.70;;;2.30;99.90;;;;;;5092003;28;20110;-91
2023/04/08 07:16:01;;;;;;;14.13;7.13;;;2.30;99.90;;;;;;5093966;28;20063;-91
2023/04/08 07:18:27;;;;;;;13.73;7.75;;;2.40;99.90;;;;;;5107866;28;20019;-91
2023/04/08 07:20:53;;;;;;;19.48;9.25;;;2.40;99.90;;;;;;5112277;28;20027;-91
2023/04/08 07:23:19;;;;;;;19.90;7.40;;;2.50;99.90;;;;;;5112041;28;20396;-91
2023/04/08 07:25:45;;;;;;;16.98;7.90;;;2.50;99.90;;;;;;5112020;28;20031;-91
2023/04/08 07:28:11;;;;;;;16.77;8.23;;;2.60;99.90;;;;;;5112666;28;20051;-90
2023/04/08 07:30:37;;;;;;;15.82;8.95;;;2.60;99.90;;;;;;5112276;28;20077;-91
2023/04/08 07:33:03;;;;;;;16.95;8.00;;;2.70;99.90;;;;;;5121663;28;20028;-90
2023/04/08 07:35:30;;;;;;;14.18;8.52;;;2.70;99.90;;;;;;5121699;28;20016;-90
2023/04/08 07:37:56;;;;;;;20.05;9.40;;;2.80;99.90;;;;;;5115516;28;20024;-91
2023/04/08 07:40:22;;;;;;;17.98;9.63;;;2.80;99.90;;;;;;5115824;28;20124;-91
2023/04/08 07:42:48;;;;;;;19.45;10.00;;;2.90;99.90;;;;;;5117079;28;20087;-90
2023/04/08 07:45:14;;;;;;;21.27;9.90;;;3.00;99.90;;;;;;5115201;28;20023;-91
2023/04/08 07:47:40;;;;;;;21.17;9.73;;;3.10;99.90;;;;;;5115567;28;20031;-91
2023/04/08 07:50:06;;;;;;;20.17;10.27;;;3.10;99.90;;;;;;5115411;28;20031;-89
2023/04/08 07:52:32;;;;;;;21.02;9.68;;;3.20;99.90;;;;;;5117767;28;20023;-89
2023/04/08 07:54:58;;;;;;;19.23;10.00;;;3.30;99.90;;;;;;5116249;28;20015;-90
2023/04/08 07:57:25;;;;;;;22.52;11.00;;;3.30;99.90;;;;;;5115115;28;20034;-89
2023/04/08 07:59:51;;;;;;;19.17;10.02;;;3.30;99.90;;;;;;5114801;28;20023;-89
2023/04/08 08:02:16;;;;;;;27.55;9.80;;;3.40;99.90;;;;;;5116296;28;20024;-89
2023/04/08 08:04:42;;;;;;;21.55;9.77;;;3.50;99.90;;;;;;5113843;28;20071;-89
2023/04/08 08:07:08;;;;;;;24.25;10.45;;;3.60;99.90;;;;;;5113785;28;20031;-90
2023/04/08 08:09:33;;;;;;;18.40;9.65;;;3.70;99.90;;;;;;5115481;28;20026;-89
2023/04/08 08:11:59;;;;;;;22.50;9.70;;;3.90;99.90;;;;;;5115760;28;20031;-91
2023/04/08 08:14:25;;;;;;;26.77;10.90;;;4.00;99.90;;;;;;5114691;28;20074;-90
2023/04/08 08:16:52;;;;;;;26.73;10.52;;;4.10;99.90;;;;;;5115059;28;20476;-89
2023/04/08 08:19:22;;;;;;;22.35;9.68;;;4.20;99.90;;;;;;5117782;28;20027;-92
2023/04/08 08:21:47;;;;;;;23.45;10.60;;;4.30;99.90;;;;;;5115392;28;20031;-90
2023/04/08 08:24:13;;;;;;;18.17;9.70;;;4.50;99.90;;;;;;5115279;28;20032;-90
2023/04/08 08:26:39;;;;;;;26.67;10.23;;;4.60;99.90;;;;;;5119781;28;20392;-89
2023/04/08 08:29:07;;;;;;;24.40;10.23;;;4.70;99.90;;;;;;5115699;28;20020;-90
2023/04/08 08:31:33;;;;;;;23.05;9.90;;;4.80;99.90;;;;;;5111989;28;20043;-90
2023/04/08 08:33:59;;;;;;;23.70;9.95;;;5.00;99.90;;;;;;5114611;28;20506;-92
2023/04/08 08:36:26;;;;;;;23.98;9.43;;;5.10;99.90;;;;;;5114682;28;20110;-90
2023/04/08 08:38:53;;;;;;;22.55;10.15;;;5.20;99.90;;;;;;5115594;28;20110;-90
2023/04/08 08:41:19;;;;;;;22.02;9.85;;;5.40;99.90;;;;;;5114906;28;20059;-91
2023/04/08 08:43:46;;;;;;;22.40;9.82;;;5.50;99.90;;;;;;5114408;28;20122;-90
2023/04/08 08:46:16;;;;;;;20.33;9.05;;;5.70;99.90;;;;;;5114381;28;20511;-91
2023/04/08 08:48:42;;;;;;;20.60;9.23;;;5.90;99.90;;;;;;5113718;28;20043;-90
2023/04/08 08:51:09;;;;;;;17.15;9.27;;;6.10;99.90;;;;;;5114553;28;20274;-90
2023/04/08 08:53:36;;;;;;;19.73;8.95;;;6.30;99.90;;;;;;5114433;28;20095;-91
2023/04/08 08:56:02;;;;;;;28.90;11.43;;;6.50;99.90;;;;;;5114333;28;20390;-91
2023/04/08 08:58:33;;;;;;;20.85;10.57;;;6.70;99.90;;;;;;5115669;28;20016;-92
2023/04/08 09:00:59;;;;;;;21.85;11.13;;;6.90;99.90;;;;;;5112026;28;20031;-92
2023/04/08 09:03:28;;;;;;;27.42;12.73;;;7.10;99.90;;;;;;5116876;28;20023;-89
2023/04/08 09:05:58;;;;;;;31.13;16.90;;;7.20;99.90;;;;;;5122016;28;20096;-90
2023/04/08 09:08:37;;;;;;;24.92;14.88;;;7.40;99.90;;;;;;5115179;28;20469;-90
2023/04/08 09:11:14;;;;;;;27.17;13.90;;;7.60;99.90;;;;;;5113091;27;20039;-89
2023/04/08 09:13:40;;;;;;;23.83;11.20;;;7.80;99.90;;;;;;5094946;28;20031;-90
2023/04/08 09:16:08;;;;;;;20.67;11.20;;;7.90;99.90;;;;;;5112960;28;20073;-90
2023/04/08 09:18:38;;;;;;;20.95;11.60;;;8.10;99.90;;;;;;5114019;28;20620;-89
2023/04/08 09:21:05;;;;;;;21.92;11.80;;;8.30;99.90;;;;;;5114088;28;20053;-91
2023/04/08 09:23:39;;;;;;;26.00;10.95;;;8.50;99.90;;;;;;5115287;28;20038;-91
2023/04/08 09:26:21;;;;;;;21.50;8.88;;;8.70;99.90;;;;;;5119159;28;20509;-90
2023/04/08 09:29:01;;;;;;;17.67;9.45;;;8.90;99.90;;;;;;5116171;28;20039;-91
2023/04/08 09:31:29;;;;;;;22.65;10.05;;;9.20;99.90;;;;;;5113660;28;20059;-90
2023/04/08 09:33:57;;;;;;;20.92;9.55;;;9.50;99.90;;;;;;5113949;28;20544;-90
2023/04/08 09:36:25;;;;;;;59.17;31.13;;;9.70;99.90;;;;;;5113317;28;20495;-91
2023/04/08 09:38:51;;;;;;;23.40;12.27;;;9.90;99.90;;;;;;5113845;28;20027;-90
2023/04/08 09:41:19;;;;;;;25.50;13.15;;;10.20;99.90;;;;;;5112478;28;20035;-90
2023/04/08 09:43:51;;;;;;;26.20;16.17;;;10.40;99.90;;;;;;5114029;28;20014;-90
2023/04/08 09:46:20;;;;;;;27.58;17.00;;;10.80;99.90;;;;;;5112544;28;20039;-90
2023/04/08 09:48:51;;;;;;;23.75;12.10;;;11.00;99.90;;;;;;5112722;28;20114;-91
2023/04/08 09:51:18;;;;;;;14.43;8.82;;;11.20;99.90;;;;;;5127258;27;20040;-89
2023/04/08 09:53:55;;;;;;;18.13;10.30;;;11.50;99.90;;;;;;5120130;27;20115;-91
2023/04/08 09:56:21;;;;;;;17.77;9.30;;;11.80;99.90;;;;;;5110137;28;20142;-90
2023/04/08 09:59:08;;;;;;;17.60;9.43;;;11.90;99.90;;;;;;5114378;28;20030;-89
2023/04/08 10:01:41;;;;;;;21.77;14.10;;;12.10;99.90;;;;;;5112779;28;20519;-90
2023/04/08 10:04:16;;;;;;;28.13;16.90;;;12.30;99.90;;;;;;5113439;28;20031;-90
2023/04/08 10:06:42;;;;;;;14.65;7.78;;;12.30;99.90;;;;;;5113050;28;20047;-91
2023/04/08 10:09:12;;;;;;;13.95;6.65;;;12.40;99.90;;;;;;5113150;28;20031;-91
2023/04/08 10:11:37;;;;;;;11.98;5.97;;;12.60;99.90;;;;;;5112707;28;20030;-90
2023/04/08 10:14:03;;;;;;;7.93;4.85;;;12.70;99.90;;;;;;5113756;28;20031;-90
2023/04/08 10:16:29;;;;;;;8.45;5.18;;;12.90;99.90;;;;;;5113103;28;20031;-90
2023/04/08 10:18:56;;;;;;;8.20;4.25;;;13.10;99.90;;;;;;5112941;28;20484;-91
2023/04/08 10:21:32;;;;;;;7.63;4.90;;;13.20;99.60;;;;;;5113293;28;20043;-91
2023/04/08 10:23:58;;;;;;;12.15;5.28;;;13.30;97.80;;;;;;5113615;28;20031;-92
2023/04/08 10:26:44;;;;;;;8.88;5.13;;;13.50;97.00;;;;;;5114089;28;20097;-92
2023/04/08 10:29:28;;;;;;;9.00;4.90;;;13.60;95.40;;;;;;5128378;28;20058;-90
2023/04/08 10:31:53;;;;;;;11.85;5.22;;;13.80;94.50;;;;;;5136074;28;20016;-91
2023/04/08 10:34:21;;;;;;;11.93;4.55;;;13.80;93.60;;;;;;5136076;28;20111;-91
2023/04/08 10:36:48;;;;;;;8.15;4.80;;;14.00;92.90;;;;;;5133630;28;20045;-90
2023/04/08 10:39:15;;;;;;;7.38;4.05;;;14.10;92.40;;;;;;5136119;27;20022;-92
2023/04/08 10:41:45;;;;;;;8.25;3.58;;;14.30;91.50;;;;;;5135900;28;20024;-90
2023/04/08 10:44:29;;;;;;;7.37;3.30;;;14.50;90.60;;;;;;5133791;28;20028;-90
2023/04/08 10:46:55;;;;;;;10.15;3.83;;;14.70;87.80;;;;;;5118554;28;20043;-90
2023/04/08 10:49:21;;;;;;;7.78;4.13;;;14.90;86.00;;;;;;5119352;28;20075;-92
2023/04/08 10:51:47;;;;;;;124.93;13.98;;;15.00;84.30;;;;;;5121962;28;20054;-92
2023/04/08 10:54:15;;;;;;;22.38;5.35;;;15.20;81.50;;;;;;5119596;28;20024;-92
2023/04/08 10:56:49;;;;;;;5.45;3.05;;;15.40;80.40;;;;;;5126183;28;20041;-91
2023/04/08 10:59:19;;;;;;;9.55;4.07;;;15.70;78.50;;;;;;5127952;28;20028;-93
2023/04/08 11:01:45;;;;;;;9.35;4.03;;;15.80;75.90;;;;;;5120280;28;20016;-92
2023/04/08 11:04:17;;;;;;;7.22;3.10;;;15.90;74.70;;;;;;5106500;28;20051;-92
2023/04/08 11:06:44;;;;;;;5.15;3.28;;;16.00;73.10;;;;;;5127033;28;20032;-91
2023/04/08 11:09:15;;;;;;;11.45;4.68;;;16.10;72.10;;;;;;5126224;28;20080;-91
2023/04/08 11:11:44;;;;;;;;;;;16.20;71.70;;;;;;5128345;28;20027;-92
2023/04/08 11:14:10;;;;;;;8.40;3.30;;;16.10;70.70;;;;;;5133912;28;19919;-91
2023/04/08 11:16:37;;;;;;;12.20;5.80;;;16.10;69.50;;;;;;5132689;28;20020;-92
2023/04/08 11:19:04;;;;;;;6.60;3.60;;;16.10;68.20;;;;;;5127484;28;20073;-92
2023/04/08 11:21:34;;;;;;;6.35;3.50;;;16.10;68.90;;;;;;5128596;28;20055;-93
2023/04/08 11:23:59;;;;;;;5.78;3.28;;;16.30;69.20;;;;;;5131635;28;20024;-93
2023/04/08 11:26:26;;;;;;;9.10;3.17;;;16.40;68.80;;;;;;5125558;28;20056;-91
2023/04/08 11:28:53;;;;;;;8.07;3.20;;;16.60;68.00;;;;;;5127208;28;20024;-92
2023/04/08 11:31:21;;;;;;;4.90;2.95;;;16.80;67.20;;;;;;5131727;28;20020;-91
2023/04/08 11:33:48;;;;;;;6.65;3.10;;;17.10;66.80;;;;;;5122932;28;20047;-92
2023/04/08 11:36:17;;;;;;;6.10;3.47;;;17.30;65.60;;;;;;5109172;28;20028;-91
2023/04/08 11:38:43;;;;;;;7.25;3.13;;;17.50;64.40;;;;;;5126756;28;20024;-91
2023/04/08 11:41:12;;;;;;;9.48;3.13;;;17.50;62.60;;;;;;5127984;28;20020;-91
2023/04/08 11:43:39;;;;;;;7.38;2.92;;;17.30;61.30;;;;;;5129665;28;20034;-92
2023/04/08 11:46:12;;;;;;;5.75;2.72;;;17.30;61.30;;;;;;5115530;28;20020;-90
2023/04/08 11:48:38;;;;;;;8.30;3.05;;;17.30;60.20;;;;;;5117452;28;20036;-92
2023/04/08 11:51:08;;;;;;;5.40;2.80;;;17.50;60.20;;;;;;5129932;28;20058;-89
2023/04/08 11:53:38;;;;;;;8.23;2.73;;;17.60;59.80;;;;;;5114571;28;20520;-93
2023/04/08 11:56:21;;;;;;;7.18;2.60;;;17.70;59.50;;;;;;5126436;28;20026;-91
2023/04/08 11:58:50;;;;;;;6.05;2.60;;;17.70;58.40;;;;;;5113227;28;20028;-92
2023/04/08 12:01:17;;;;;;;8.43;3.10;;;17.70;58.60;;;;;;5120556;28;20024;-90
2023/04/08 12:04:01;;;;;;;6.90;2.53;;;17.90;58.80;;;;;;5127266;28;20024;-91
2023/04/08 12:06:35;;;;;;;6.45;3.03;;;18.20;58.10;;;;;;5125417;28;20031;-92
2023/04/08 12:09:04;;;;;;;7.93;2.90;;;18.40;57.30;;;;;;5120312;28;20091;-92
2023/04/08 12:11:30;;;;;;;4.05;2.50;;;18.70;57.20;;;;;;5122006;28;20515;-90
2023/04/08 12:13:56;;;;;;;7.13;3.30;;;18.90;56.70;;;;;;5120136;28;20023;-90
2023/04/08 12:16:23;;;;;;;6.10;3.08;;;19.00;55.00;;;;;;5119110;28;20028;-90
2023/04/08 12:18:49;;;;;;;8.18;3.75;;;18.90;54.70;;;;;;5120322;28;20042;-90
2023/04/08 12:21:14;;;;;;;7.60;3.97;;;18.90;55.30;;;;;;5118467;28;20048;-90
2023/04/08 12:23:40;;;;;;;6.25;2.28;;;18.80;55.20;;;;;;5133577;28;20046;-92
2023/04/08 12:26:06;;;;;;;6.63;3.30;;;19.00;55.80;;;;;;5128771;28;20026;-91
2023/04/08 12:28:33;;;;;;;6.80;2.70;;;19.30;56.00;;;;;;5134837;28;20050;-92
2023/04/08 12:30:59;;;;;;;9.00;3.03;;;19.50;55.60;;;;;;5135886;28;20028;-91
2023/04/08 12:33:25;;;;;;;5.82;3.45;;;19.70;55.00;;;;;;5114541;28;20029;-91
2023/04/08 12:35:51;;;;;;;7.53;3.28;;;19.60;54.70;;;;;;5124797;28;20024;-91
2023/04/08 12:38:17;;;;;;;9.30;3.65;;;19.70;54.70;;;;;;5126905;28;20504;-91
2023/04/08 12:40:43;;;;;;;5.97;3.25;;;19.70;54.50;;;;;;5130568;28;20031;-93
2023/04/08 12:43:08;;;;;;;7.85;3.20;;;19.90;54.50;;;;;;5130179;28;20298;-92
2023/04/08 12:45:35;;;;;;;7.55;3.30;;;20.10;54.50;;;;;;5132703;28;20008;-93
2023/04/08 12:48:04;;;;;;;6.35;3.78;;;20.40;54.20;;;;;;5133344;28;20027;-93
2023/04/08 12:50:29;;;;;;;6.10;3.28;;;20.40;53.10;;;;;;5133138;28;20008;-94